createdAt,value
2019-03-03T00:02:16.214Z,10.35
2019-03-03T00:04:46.966Z,10.80
2019-03-03T00:07:18.469Z,12.65
2019-03-03T00:09:49.885Z,17.82
2019-03-03T00:12:20.301Z,16.77
2019-03-03T00:14:51.554Z,11.57
2019-03-03T00:17:21.839Z,11.43
2019-03-03T00:19:52.395Z,13.75
2019-03-03T00:22:22.847Z,10.18
2019-03-03T00:24:53.208Z,13.80
2019-03-03T00:27:23.672Z,11.48
2019-03-03T00:29:54.580Z,11.93
2019-03-03T00:32:24.964Z,14.50
2019-03-03T00:34:55.421Z,16.73
2019-03-03T00:37:45.862Z,12.60
2019-03-03T00:40:35.044Z,13.15
2019-03-03T00:43:20.532Z,17.60
2019-03-03T00:46:16.219Z,11.15
2019-03-03T00:48:55.961Z,18.60
2019-03-03T00:51:46.380Z,17.25
2019-03-03T00:54:37.819Z,8.45
2019-03-03T00:57:14.069Z,14.50
2019-03-03T00:59:49.979Z,9.63
2019-03-03T01:02:27.716Z,14.70
2019-03-03T01:05:14.460Z,15.40
2019-03-03T01:08:22.550Z,17.70
2019-03-03T01:11:04.885Z,15.00
2019-03-03T01:13:52.998Z,12.98
2019-03-03T01:16:36.043Z,17.87
2019-03-03T01:19:15.073Z,14.68
2019-03-03T01:21:59.449Z,19.73
2019-03-03T01:24:39.143Z,13.90
2019-03-03T01:27:09.503Z,15.05
2019-03-03T01:29:40.054Z,14.73
2019-03-03T01:32:11.418Z,16.30
2019-03-03T01:34:41.768Z,10.55
2019-03-03T01:37:12.102Z,13.10
2019-03-03T01:39:42.661Z,18.60
2019-03-03T01:42:13.873Z,14.63
2019-03-03T01:44:44.391Z,12.95
2019-03-03T01:47:14.771Z,18.92
2019-03-03T01:49:45.157Z,18.52
2019-03-03T01:52:16.756Z,17.42
2019-03-03T01:54:47.282Z,18.32
2019-03-03T01:57:17.736Z,16.25
2019-03-03T01:59:48.157Z,14.80
2019-03-03T02:02:18.638Z,19.60
2019-03-03T02:04:49.062Z,15.40
2019-03-03T02:07:20.324Z,15.63
2019-03-03T02:09:51.020Z,12.98
2019-03-03T02:12:22.709Z,16.50
2019-03-03T02:14:53.082Z,21.60
2019-03-03T02:17:23.566Z,16.82
2019-03-03T02:19:54.054Z,21.87
2019-03-03T02:22:24.576Z,16.97
2019-03-03T02:24:54.983Z,16.80
2019-03-03T02:27:25.310Z,20.95
2019-03-03T02:29:55.609Z,21.33
2019-03-03T02:32:25.981Z,21.73
2019-03-03T02:34:56.355Z,21.57
2019-03-03T02:37:26.800Z,21.10
2019-03-03T02:39:57.254Z,21.70
2019-03-03T02:42:27.636Z,18.17
2019-03-03T02:44:58.027Z,23.27
2019-03-03T02:47:28.468Z,19.82
2019-03-03T02:49:58.919Z,19.35
2019-03-03T02:52:29.671Z,20.17
2019-03-03T02:55:00.012Z,16.02
2019-03-03T02:57:30.364Z,22.32
2019-03-03T03:00:01.106Z,19.05
2019-03-03T03:02:51.233Z,21.00
2019-03-03T03:05:41.123Z,17.57
2019-03-03T03:08:19.992Z,20.60
2019-03-03T03:10:57.125Z,23.55
2019-03-03T03:13:35.081Z,21.02
2019-03-03T03:16:13.430Z,23.02
2019-03-03T03:18:57.301Z,18.92
2019-03-03T03:21:40.915Z,18.62
2019-03-03T03:24:28.515Z,21.00
2019-03-03T03:27:07.336Z,20.60
2019-03-03T03:29:45.877Z,20.02
2019-03-03T03:32:21.953Z,18.23
2019-03-03T03:35:17.685Z,19.48
2019-03-03T03:38:22.633Z,20.15
2019-03-03T03:41:07.262Z,20.05
2019-03-03T03:43:56.849Z,20.95
2019-03-03T03:46:35.097Z,20.15
2019-03-03T03:49:24.219Z,20.12
2019-03-03T03:52:12.556Z,17.95
2019-03-03T03:55:06.397Z,17.90
2019-03-03T03:57:50.434Z,21.65
2019-03-03T04:00:37.458Z,20.10
2019-03-03T04:03:21.510Z,21.15
2019-03-03T04:06:14.021Z,19.90
2019-03-03T04:09:11.633Z,23.07
2019-03-03T04:12:00.809Z,18.42
2019-03-03T04:14:51.536Z,24.02
2019-03-03T04:17:38.995Z,18.65
2019-03-03T04:20:27.647Z,18.67
2019-03-03T04:23:19.960Z,15.05
2019-03-03T04:26:12.549Z,18.55
2019-03-03T04:29:02.764Z,18.45
2019-03-03T04:31:51.034Z,20.35
2019-03-03T04:34:30.839Z,21.00
2019-03-03T04:37:22.242Z,21.90
2019-03-03T04:40:08.741Z,18.23
2019-03-03T04:42:51.025Z,22.98
2019-03-03T04:45:30.450Z,22.02
2019-03-03T04:48:12.644Z,24.63
2019-03-03T04:51:01.477Z,17.32
2019-03-03T04:53:45.956Z,23.57
2019-03-03T04:56:23.879Z,18.05
2019-03-03T04:59:16.403Z,23.00
2019-03-03T05:01:53.753Z,26.12
2019-03-03T05:04:30.009Z,25.92
2019-03-03T05:07:06.790Z,16.40
2019-03-03T05:09:58.644Z,22.98
2019-03-03T05:12:39.751Z,20.65
2019-03-03T05:15:30.748Z,19.07
2019-03-03T05:18:07.578Z,20.77
2019-03-03T05:20:46.301Z,19.45
2019-03-03T05:23:16.799Z,22.00
2019-03-03T05:25:47.211Z,17.75
2019-03-03T05:28:17.700Z,22.25
2019-03-03T05:30:48.099Z,19.73
2019-03-03T05:33:19.406Z,20.85
2019-03-03T05:35:49.792Z,22.60
2019-03-03T05:38:20.416Z,23.20
2019-03-03T05:40:50.811Z,22.58
2019-03-03T05:43:21.149Z,20.12
2019-03-03T05:45:51.801Z,22.35
2019-03-03T05:48:22.244Z,23.32
2019-03-03T05:50:52.701Z,24.00
2019-03-03T05:53:23.372Z,21.42
2019-03-03T05:55:53.783Z,24.90
2019-03-03T05:58:24.141Z,25.68
2019-03-03T06:00:54.576Z,25.80
2019-03-03T06:03:25.853Z,27.42
2019-03-03T06:05:56.803Z,27.00
2019-03-03T06:08:27.148Z,23.02
2019-03-03T06:10:57.584Z,27.42
2019-03-03T06:13:28.108Z,25.55
2019-03-03T06:15:58.958Z,25.60
2019-03-03T06:18:29.752Z,24.52
2019-03-03T06:21:00.080Z,25.27
2019-03-03T06:23:30.437Z,27.65
2019-03-03T06:26:00.880Z,28.90
2019-03-03T06:28:31.804Z,28.98
2019-03-03T06:31:02.389Z,27.52
2019-03-03T06:33:32.731Z,32.48
2019-03-03T06:36:03.059Z,27.75
2019-03-03T06:38:33.684Z,25.08
2019-03-03T06:41:04.215Z,24.25
2019-03-03T06:43:34.621Z,28.12
2019-03-03T06:46:05.085Z,21.77
2019-03-03T06:48:35.505Z,29.37
2019-03-03T06:51:05.827Z,27.22
2019-03-03T06:53:36.518Z,18.07
2019-03-03T06:56:07.266Z,17.95
2019-03-03T06:58:37.711Z,25.02
2019-03-03T07:01:08.260Z,13.65
2019-03-03T07:03:38.691Z,16.23
2019-03-03T07:06:09.132Z,17.52
2019-03-03T07:08:39.583Z,11.63
2019-03-03T07:11:10.157Z,11.55
2019-03-03T07:13:40.582Z,9.58
2019-03-03T07:16:11.597Z,9.50
2019-03-03T07:18:42.295Z,10.08
2019-03-03T07:21:12.760Z,8.43
2019-03-03T07:23:43.188Z,8.98
2019-03-03T07:26:13.916Z,13.72
2019-03-03T07:28:44.610Z,8.50
2019-03-03T07:31:15.448Z,6.70
2019-03-03T07:33:50.081Z,6.62
2019-03-03T07:36:20.529Z,6.78
2019-03-03T07:38:51.777Z,4.42
2019-03-03T07:41:22.264Z,4.90
2019-03-03T07:43:52.675Z,4.40
2019-03-03T07:46:23.226Z,4.58
2019-03-03T07:48:53.651Z,3.37
2019-03-03T07:51:24.115Z,4.28
2019-03-03T07:53:55.592Z,2.60
2019-03-03T07:56:26.148Z,3.30
2019-03-03T07:58:56.607Z,3.10
2019-03-03T08:01:27.321Z,2.17
2019-03-03T08:03:57.912Z,3.50
2019-03-03T08:06:28.312Z,4.35
2019-03-03T08:08:58.662Z,4.78
2019-03-03T08:11:29.025Z,3.40
2019-03-03T08:13:59.603Z,4.65
2019-03-03T08:16:31.460Z,4.85
2019-03-03T08:19:01.873Z,2.15
2019-03-03T08:21:33.664Z,3.45
2019-03-03T08:24:04.083Z,2.77
2019-03-03T08:26:34.440Z,4.37
2019-03-03T08:29:04.959Z,3.00
2019-03-03T08:31:35.320Z,3.75
2019-03-03T08:34:05.795Z,3.30
2019-03-03T08:36:36.181Z,3.98
2019-03-03T08:39:07.931Z,5.40
2019-03-03T08:41:42.588Z,3.77
2019-03-03T08:44:19.213Z,5.58
2019-03-03T08:47:07.995Z,4.70
2019-03-03T08:49:54.459Z,5.60
2019-03-03T08:52:42.615Z,5.08
2019-03-03T08:55:41.289Z,8.25
2019-03-03T08:58:29.830Z,5.83
2019-03-03T09:01:10.939Z,7.42
2019-03-03T09:03:52.396Z,7.97
2019-03-03T09:06:33.315Z,7.50
2019-03-03T09:09:30.231Z,9.45
2019-03-03T09:12:18.382Z,6.60
2019-03-03T09:15:23.330Z,8.53
2019-03-03T09:18:22.507Z,8.78
2019-03-03T09:21:10.984Z,8.40
2019-03-03T09:23:50.673Z,9.10
2019-03-03T09:26:41.092Z,6.87
2019-03-03T09:29:33.620Z,4.90
2019-03-03T09:32:17.312Z,9.23
2019-03-03T09:35:16.046Z,8.63
2019-03-03T09:37:55.159Z,5.95
2019-03-03T09:40:34.919Z,8.35
2019-03-03T09:43:23.107Z,5.53
2019-03-03T09:46:04.609Z,8.30
2019-03-03T09:48:54.793Z,4.92
2019-03-03T09:51:42.980Z,5.53
2019-03-03T09:54:18.875Z,8.13
2019-03-03T09:57:11.596Z,5.62
2019-03-03T10:00:13.072Z,8.23
2019-03-03T10:03:14.916Z,3.77
2019-03-03T10:06:00.062Z,6.65
2019-03-03T10:08:52.692Z,7.97
2019-03-03T10:11:45.227Z,6.90
2019-03-03T10:14:41.943Z,5.08
2019-03-03T10:17:29.311Z,6.92
2019-03-03T10:20:27.829Z,4.80
2019-03-03T10:23:17.305Z,4.17
2019-03-03T10:26:03.865Z,6.75
2019-03-03T10:29:11.671Z,4.75
2019-03-03T10:32:10.576Z,4.20
2019-03-03T10:34:56.110Z,4.47
2019-03-03T10:37:33.394Z,2.15
2019-03-03T10:40:13.069Z,3.80
2019-03-03T10:42:57.608Z,2.77
2019-03-03T10:45:38.772Z,2.33
2019-03-03T10:48:27.179Z,2.70
2019-03-03T10:51:16.764Z,2.15
2019-03-03T10:54:11.501Z,1.35
2019-03-03T10:57:04.736Z,4.10
2019-03-03T10:59:55.130Z,2.45
2019-03-03T11:02:43.683Z,3.65
2019-03-03T11:05:25.384Z,5.50
2019-03-03T11:08:10.221Z,2.20
2019-03-03T11:11:02.678Z,3.35
2019-03-03T11:14:07.586Z,6.20
2019-03-03T11:16:56.009Z,5.72
2019-03-03T11:19:42.989Z,7.92
2019-03-03T11:22:22.201Z,7.20
2019-03-03T11:25:04.728Z,10.30
2019-03-03T11:27:48.036Z,9.18
2019-03-03T11:30:39.122Z,7.25
2019-03-03T11:33:27.770Z,8.05
2019-03-03T11:36:15.115Z,5.85
2019-03-03T11:38:59.605Z,7.97
2019-03-03T11:41:40.754Z,8.08
2019-03-03T11:44:29.928Z,5.92
2019-03-03T11:47:10.692Z,7.30
2019-03-03T11:49:58.727Z,8.83
2019-03-03T11:53:00.143Z,7.30
2019-03-03T11:55:56.824Z,8.40
2019-03-03T11:58:53.075Z,7.30
2019-03-03T12:01:41.672Z,8.60
2019-03-03T12:04:37.363Z,8.38
2019-03-03T12:07:16.650Z,7.00
2019-03-03T12:09:53.532Z,9.95
2019-03-03T12:12:41.880Z,12.18
2019-03-03T12:15:26.848Z,7.22
2019-03-03T12:18:16.002Z,9.83
2019-03-03T12:21:00.150Z,8.85
2019-03-03T12:23:56.884Z,9.95
2019-03-03T12:26:49.978Z,9.20
2019-03-03T12:29:32.620Z,5.58
2019-03-03T12:32:40.824Z,9.10
2019-03-03T12:35:30.157Z,10.08
2019-03-03T12:38:22.364Z,10.10
2019-03-03T12:41:10.932Z,11.05
2019-03-03T12:44:03.442Z,7.33
2019-03-03T12:46:42.410Z,12.73
2019-03-03T12:49:34.820Z,7.40
2019-03-03T12:52:27.528Z,5.30
2019-03-03T12:55:17.389Z,8.93
2019-03-03T12:58:25.308Z,7.95
2019-03-03T13:01:06.259Z,8.53
2019-03-03T13:03:47.465Z,7.78
2019-03-03T13:06:42.739Z,5.50
2019-03-03T13:09:30.914Z,5.78
2019-03-03T13:12:18.999Z,10.75
2019-03-03T13:14:56.920Z,8.55
2019-03-03T13:17:48.288Z,9.65
2019-03-03T13:20:22.660Z,12.07
2019-03-03T13:23:07.131Z,9.35
2019-03-03T13:26:02.434Z,7.17
2019-03-03T13:28:40.999Z,9.58
2019-03-03T13:31:20.510Z,11.65
2019-03-03T13:34:08.857Z,10.10
2019-03-03T13:36:48.928Z,9.53
2019-03-03T13:39:25.103Z,12.60
2019-03-03T13:42:22.325Z,11.73
2019-03-03T13:44:53.687Z,10.80
2019-03-03T13:47:23.973Z,10.45
2019-03-03T13:49:54.374Z,10.08
2019-03-03T13:52:24.875Z,14.73
2019-03-03T13:54:55.356Z,12.53
2019-03-03T13:57:25.757Z,13.15
2019-03-03T13:59:56.126Z,16.05
2019-03-03T14:02:26.508Z,10.48
2019-03-03T14:04:57.019Z,13.48
2019-03-03T14:07:27.405Z,11.38
2019-03-03T14:09:57.804Z,10.78
2019-03-03T14:12:28.304Z,13.20
2019-03-03T14:14:58.742Z,15.83
2019-03-03T14:17:29.180Z,13.20
2019-03-03T14:20:00.308Z,10.55
2019-03-03T14:22:30.784Z,15.43
2019-03-03T14:25:01.110Z,13.83
2019-03-03T14:27:32.623Z,17.27
2019-03-03T14:30:03.971Z,13.22
2019-03-03T14:32:34.589Z,14.98
2019-03-03T14:35:05.759Z,13.65
2019-03-03T14:37:36.292Z,10.82
2019-03-03T14:40:07.717Z,17.98
2019-03-03T14:42:38.216Z,16.17
2019-03-03T14:45:10.440Z,15.23
2019-03-03T14:47:40.841Z,17.73
2019-03-03T14:50:13.111Z,17.98
2019-03-03T14:52:43.826Z,19.30
2019-03-03T14:55:16.260Z,18.20
2019-03-03T14:57:46.663Z,22.30
2019-03-03T15:00:25.881Z,21.87
2019-03-03T15:02:58.851Z,17.50
2019-03-03T15:05:29.692Z,15.68
2019-03-03T15:08:00.259Z,19.48
2019-03-03T15:10:30.735Z,16.23
2019-03-03T15:13:01.248Z,18.05
2019-03-03T15:15:32.473Z,17.12
2019-03-03T15:18:02.923Z,20.40
2019-03-03T15:20:33.673Z,21.80
2019-03-03T15:23:04.412Z,19.45
2019-03-03T15:25:35.048Z,17.73
2019-03-03T15:28:06.609Z,22.95
2019-03-03T15:30:37.438Z,21.90
2019-03-03T15:33:07.985Z,22.52
2019-03-03T15:35:38.370Z,15.63
2019-03-03T15:38:08.719Z,18.92
2019-03-03T15:40:39.173Z,21.02
2019-03-03T15:43:09.613Z,17.60
2019-03-03T15:45:39.949Z,15.93
2019-03-03T15:48:10.325Z,16.07
2019-03-03T15:50:40.852Z,20.88
2019-03-03T15:53:11.323Z,16.25
2019-03-03T15:55:41.665Z,16.75
2019-03-03T15:58:12.066Z,16.77
2019-03-03T16:00:42.842Z,22.77
2019-03-03T16:03:14.021Z,19.62
2019-03-03T16:05:44.480Z,15.95
2019-03-03T16:08:14.996Z,18.75
2019-03-03T16:10:45.349Z,17.80
2019-03-03T16:13:15.661Z,20.72
2019-03-03T16:15:46.146Z,16.50
2019-03-03T16:18:16.596Z,19.95
2019-03-03T16:20:46.936Z,18.80
2019-03-03T16:23:18.079Z,17.60
2019-03-03T16:25:48.493Z,23.95
2019-03-03T16:28:18.852Z,13.55
2019-03-03T16:30:49.857Z,13.35
2019-03-03T16:33:21.021Z,18.82
2019-03-03T16:35:51.651Z,18.82
2019-03-03T16:38:22.080Z,18.67
2019-03-03T16:40:52.441Z,16.00
2019-03-03T16:43:23.250Z,17.42
2019-03-03T16:45:53.552Z,17.60
2019-03-03T16:48:23.920Z,15.53
2019-03-03T16:50:54.409Z,16.65
2019-03-03T16:53:24.745Z,18.37
2019-03-03T16:55:55.098Z,17.90
2019-03-03T16:58:25.462Z,20.02
2019-03-03T17:00:56.064Z,15.25
2019-03-03T17:03:26.454Z,14.40
2019-03-03T17:05:57.032Z,17.02
2019-03-03T17:08:27.773Z,13.78
2019-03-03T17:10:58.219Z,12.70
2019-03-03T17:13:33.716Z,13.03
2019-03-03T17:16:05.111Z,16.27
2019-03-03T17:18:35.540Z,7.45
2019-03-03T17:21:06.046Z,10.40
2019-03-03T17:23:36.449Z,17.05
2019-03-03T17:26:09.456Z,13.70
2019-03-03T17:28:40.155Z,15.88
2019-03-03T17:31:13.548Z,14.68
2019-03-03T17:33:43.960Z,13.68
2019-03-03T17:36:14.429Z,11.15
2019-03-03T17:38:44.812Z,11.70
2019-03-03T17:41:15.935Z,12.45
2019-03-03T17:43:46.263Z,11.35
2019-03-03T17:46:16.611Z,11.57
2019-03-03T17:48:47.186Z,12.98
2019-03-03T17:51:17.625Z,12.07
2019-03-03T17:53:48.064Z,13.65
2019-03-03T17:56:19.104Z,10.03
2019-03-03T17:58:49.546Z,12.25
2019-03-03T18:01:19.885Z,13.70
2019-03-03T18:03:50.356Z,19.02
2019-03-03T18:06:20.737Z,12.65
2019-03-03T18:08:51.496Z,12.00
2019-03-03T18:11:21.893Z,12.58
2019-03-03T18:13:52.651Z,9.75
2019-03-03T18:16:27.168Z,11.88
2019-03-03T18:18:57.515Z,10.30
2019-03-03T18:21:28.610Z,12.85
2019-03-03T18:23:59.465Z,14.05
2019-03-03T18:26:29.968Z,9.50
2019-03-03T18:29:00.539Z,11.57
2019-03-03T18:31:32.475Z,14.23
2019-03-03T18:34:03.542Z,11.88
2019-03-03T18:36:34.722Z,14.10
2019-03-03T18:39:12.094Z,12.85
2019-03-03T18:41:42.578Z,14.30
2019-03-03T18:44:13.060Z,13.15
2019-03-03T18:46:43.556Z,17.48
2019-03-03T18:49:14.005Z,15.68
2019-03-03T18:51:46.021Z,13.43
2019-03-03T18:54:16.642Z,10.82
2019-03-03T18:56:48.084Z,11.18
2019-03-03T18:59:18.799Z,12.40
2019-03-03T19:01:51.547Z,13.18
2019-03-03T19:04:27.241Z,12.78
2019-03-03T19:06:57.796Z,12.45
2019-03-03T19:09:28.209Z,11.48
2019-03-03T19:11:59.556Z,12.73
2019-03-03T19:14:30.005Z,10.05
2019-03-03T19:17:01.237Z,14.80
2019-03-03T19:19:31.607Z,12.63
2019-03-03T19:22:04.107Z,12.98
2019-03-03T19:24:34.566Z,12.23
2019-03-03T19:27:05.072Z,12.15
2019-03-03T19:29:35.616Z,11.30
2019-03-03T19:32:09.978Z,11.43
2019-03-03T19:34:40.447Z,11.50
2019-03-03T19:37:11.124Z,12.45
2019-03-03T19:39:42.440Z,13.98
2019-03-03T19:42:13.003Z,13.75
2019-03-03T19:44:43.486Z,10.05
2019-03-03T19:47:13.987Z,13.65
2019-03-03T19:49:44.448Z,11.40
2019-03-03T19:52:14.980Z,11.63
2019-03-03T19:54:45.603Z,13.72
2019-03-03T19:57:17.044Z,9.55
2019-03-03T19:59:47.436Z,16.40
2019-03-03T20:02:19.506Z,9.68
2019-03-03T20:04:49.873Z,12.50
2019-03-03T20:07:20.313Z,9.45
2019-03-03T20:09:53.381Z,11.33
2019-03-03T20:12:23.895Z,10.98
2019-03-03T20:14:54.504Z,10.18
2019-03-03T20:17:24.898Z,12.63
2019-03-03T20:19:55.363Z,9.83
2019-03-03T20:22:25.880Z,8.38
2019-03-03T20:24:56.429Z,9.80
2019-03-03T20:27:26.857Z,11.55
2019-03-03T20:29:58.929Z,10.60
2019-03-03T20:32:29.530Z,5.15
2019-03-03T20:35:00.321Z,7.75
2019-03-03T20:37:30.844Z,6.10
2019-03-03T20:40:01.998Z,6.72
2019-03-03T20:42:32.824Z,6.80
2019-03-03T20:45:03.254Z,9.23
2019-03-03T20:47:33.712Z,9.05
2019-03-03T20:50:08.545Z,5.53
2019-03-03T20:52:39.235Z,14.38
2019-03-03T20:55:11.473Z,4.53
2019-03-03T20:57:41.934Z,5.45
2019-03-03T21:00:15.172Z,5.92
2019-03-03T21:02:45.644Z,4.08
2019-03-03T21:05:16.202Z,5.92
2019-03-03T21:07:51.371Z,6.58
2019-03-03T21:10:20.122Z,4.30
2019-03-03T21:12:53.949Z,8.78
2019-03-03T21:15:24.433Z,6.58
2019-03-03T21:17:54.988Z,5.22
2019-03-03T21:20:25.985Z,3.33
2019-03-03T21:22:57.600Z,4.00
2019-03-03T21:25:28.901Z,5.65
2019-03-03T21:27:59.952Z,5.92
2019-03-03T21:30:31.524Z,4.03
2019-03-03T21:33:01.966Z,3.98
2019-03-03T21:35:32.416Z,4.58
2019-03-03T21:38:05.156Z,6.03
2019-03-03T21:40:37.639Z,5.95
2019-03-03T21:43:08.623Z,3.85
2019-03-03T21:45:39.986Z,3.70
2019-03-03T21:48:10.575Z,6.62
2019-03-03T21:50:41.113Z,2.87
2019-03-03T21:53:13.469Z,5.20
2019-03-03T21:55:45.480Z,4.95
2019-03-03T21:58:16.017Z,6.62
2019-03-03T22:00:47.354Z,4.10
2019-03-03T22:03:17.901Z,5.25
2019-03-03T22:05:48.480Z,2.87
2019-03-03T22:08:19.070Z,3.22
2019-03-03T22:10:50.116Z,3.02
2019-03-03T22:13:20.556Z,5.62
2019-03-03T22:15:51.302Z,3.08
2019-03-03T22:18:21.777Z,6.30
2019-03-03T22:20:52.259Z,6.08
2019-03-03T22:23:22.663Z,4.47
2019-03-03T22:25:53.105Z,5.35
2019-03-03T22:28:23.532Z,4.97
2019-03-03T22:30:54.794Z,4.58
2019-03-03T22:33:25.127Z,5.85
2019-03-03T22:35:56.436Z,4.15
2019-03-03T22:38:27.211Z,4.37
2019-03-03T22:40:57.599Z,5.85
2019-03-03T22:43:29.573Z,5.35
2019-03-03T22:45:59.869Z,2.77
2019-03-03T22:48:30.256Z,3.30
2019-03-03T22:51:02.372Z,4.75
2019-03-03T22:53:36.288Z,4.53
2019-03-03T22:56:06.707Z,3.40
2019-03-03T22:58:37.136Z,3.95
2019-03-03T23:01:15.284Z,3.85
2019-03-03T23:04:00.147Z,4.58
2019-03-03T23:06:45.062Z,2.95
2019-03-03T23:09:55.095Z,3.35
2019-03-03T23:13:13.436Z,3.08
2019-03-03T23:16:26.805Z,5.25
2019-03-03T23:19:43.015Z,4.20
2019-03-03T23:22:35.113Z,5.03
2019-03-03T23:25:53.835Z,4.92
2019-03-03T23:28:24.932Z,6.15
2019-03-03T23:30:56.304Z,7.00
2019-03-03T23:33:26.959Z,6.60
2019-03-03T23:35:57.367Z,8.50
2019-03-03T23:38:27.851Z,6.22
2019-03-03T23:40:58.938Z,5.95
2019-03-03T23:43:29.393Z,7.80
2019-03-03T23:46:00.633Z,5.83
2019-03-03T23:48:31.087Z,4.80
2019-03-03T23:51:01.596Z,5.53
2019-03-03T23:53:31.927Z,6.33
2019-03-03T23:56:02.260Z,7.25
2019-03-03T23:58:32.629Z,3.62
